Time;durP1;ratioP1;P1;durP2;ratioP2;P2;SDS_P1;SDS_P2;PMS_P1;PMS_P2;Temp;Humidity;BMP_temperature;BMP_pressure;BME280_temperature;BME280_humidity;BME280_pressure;Samples;Min_cycle;Max_cycle;Signal;HPM_P1;HPM_P2
2024/03/26 00:02:22;;;;;;;13.70;4.53;;;4.30;99.90;;;;;;4952429;29;20047;-86
2024/03/26 00:04:49;;;;;;;9.35;4.45;;;4.70;99.90;;;;;;4952180;29;20536;-86
2024/03/26 00:07:17;;;;;;;9.48;4.47;;;5.00;99.90;;;;;;4949795;29;20050;-85
2024/03/26 00:09:44;;;;;;;10.45;4.78;;;4.30;99.90;;;;;;4968241;28;20071;-86
2024/03/26 00:12:11;;;;;;;10.00;4.75;;;4.30;99.90;;;;;;4955326;29;20050;-86
2024/03/26 00:14:38;;;;;;;12.43;4.85;;;4.30;99.90;;;;;;4948372;28;20117;-86
2024/03/26 00:17:04;;;;;;;11.10;4.80;;;4.20;99.90;;;;;;4954695;29;20556;-85
2024/03/26 00:19:31;;;;;;;9.10;4.70;;;4.20;99.90;;;;;;4954867;28;20043;-86
2024/03/26 00:21:58;;;;;;;10.10;4.80;;;4.30;99.90;;;;;;4964548;29;20039;-86
2024/03/26 00:24:24;;;;;;;12.10;4.50;;;4.30;99.90;;;;;;4985540;28;20051;-86
2024/03/26 00:26:51;;;;;;;9.90;4.60;;;4.20;99.90;;;;;;4955910;28;20039;-86
2024/03/26 00:29:18;;;;;;;10.27;4.55;;;4.20;99.90;;;;;;4959521;29;20051;-86
2024/03/26 00:31:44;;;;;;;11.38;4.03;;;4.20;99.90;;;;;;4982933;29;20036;-86
2024/03/26 00:34:11;;;;;;;10.68;4.70;;;4.20;99.90;;;;;;4960445;28;20031;-86
2024/03/26 00:36:38;;;;;;;11.00;4.90;;;4.80;99.90;;;;;;4965507;29;20386;-86
2024/03/26 00:39:05;;;;;;;10.30;4.75;;;4.20;99.90;;;;;;4955179;29;20044;-86
2024/03/26 00:41:31;;;;;;;10.48;4.65;;;4.10;99.90;;;;;;4950595;28;20047;-86
2024/03/26 00:43:58;;;;;;;10.50;4.30;;;4.10;99.90;;;;;;4953306;29;20043;-86
2024/03/26 00:46:25;;;;;;;13.15;4.43;;;5.10;99.90;;;;;;4946395;29;20051;-86
2024/03/26 00:48:51;;;;;;;9.48;4.50;;;5.00;99.90;;;;;;4947604;29;20052;-85
2024/03/26 00:51:18;;;;;;;12.98;4.72;;;4.00;99.90;;;;;;4951575;29;20046;-86
2024/03/26 00:53:44;;;;;;;13.88;4.88;;;4.00;99.90;;;;;;4977412;28;20038;-86
2024/03/26 00:56:11;;;;;;;11.60;4.22;;;5.00;99.90;;;;;;4966306;29;20496;-86
2024/03/26 00:58:38;;;;;;;10.05;5.18;;;4.50;99.90;;;;;;4962025;28;20051;-86
2024/03/26 01:01:08;;;;;;;9.18;4.15;;;4.80;99.90;;;;;;4965644;29;20792;-86
2024/03/26 01:03:35;;;;;;;9.93;4.63;;;4.00;99.90;;;;;;4958457;28;20074;-86
2024/03/26 01:06:02;;;;;;;10.57;4.75;;;4.50;99.90;;;;;;4964369;29;20095;-86
2024/03/26 01:08:29;;;;;;;10.73;4.63;;;4.00;99.90;;;;;;4958173;29;20133;-86
2024/03/26 01:10:56;;;;;;;14.63;5.00;;;4.30;99.90;;;;;;4962046;29;20039;-86
2024/03/26 01:13:23;;;;;;;10.48;4.70;;;4.10;99.90;;;;;;4958173;29;20039;-85
2024/03/26 01:15:51;;;;;;;11.02;4.72;;;4.60;99.90;;;;;;4970308;29;20079;-86
2024/03/26 01:18:18;;;;;;;10.15;4.72;;;5.00;99.90;;;;;;4958051;29;20047;-86
2024/03/26 01:20:45;;;;;;;10.88;4.97;;;5.00;99.90;;;;;;4958133;29;20451;-86
2024/03/26 01:23:11;;;;;;;8.60;4.50;;;5.00;99.90;;;;;;4973351;28;20039;-86
2024/03/26 01:25:38;;;;;;;14.25;4.28;;;4.30;99.90;;;;;;4980405;29;20508;-85
2024/03/26 01:28:05;;;;;;;13.57;4.32;;;3.90;99.90;;;;;;4959106;29;20043;-86
2024/03/26 01:30:31;;;;;;;14.00;5.22;;;4.80;99.90;;;;;;4965387;28;20050;-86
2024/03/26 01:32:58;;;;;;;10.07;4.65;;;4.30;99.90;;;;;;4965789;29;20031;-86
2024/03/26 01:35:25;;;;;;;10.60;4.20;;;4.70;99.90;;;;;;4957971;29;20043;-86
2024/03/26 01:37:53;;;;;;;13.00;4.07;;;3.90;99.90;;;;;;4950489;29;20031;-86
2024/03/26 01:40:22;;;;;;;12.07;4.40;;;4.00;99.90;;;;;;4960831;28;20042;-85
2024/03/26 01:42:50;;;;;;;8.95;4.60;;;3.80;99.90;;;;;;4949232;29;20548;-86
2024/03/26 01:45:17;;;;;;;10.82;4.47;;;3.80;99.90;;;;;;4957250;29;20054;-86
2024/03/26 01:47:45;;;;;;;9.85;4.95;;;3.80;99.90;;;;;;4965164;29;20405;-86
2024/03/26 01:50:14;;;;;;;10.02;4.05;;;4.80;99.90;;;;;;4957538;29;20162;-85
2024/03/26 01:52:42;;;;;;;10.50;4.20;;;3.70;99.90;;;;;;4966418;29;20052;-86
2024/03/26 01:55:09;;;;;;;8.95;4.13;;;3.70;99.90;;;;;;4947733;29;20047;-86
2024/03/26 01:57:36;;;;;;;12.07;4.60;;;3.60;99.90;;;;;;4970597;29;20110;-86
2024/03/26 02:00:03;;;;;;;9.95;3.92;;;3.60;99.90;;;;;;4966013;28;20041;-86
2024/03/26 02:02:30;;;;;;;9.68;4.13;;;3.60;99.90;;;;;;4974693;29;20158;-86
2024/03/26 02:04:57;;;;;;;8.95;3.97;;;3.50;99.90;;;;;;4967895;28;20086;-85
2024/03/26 02:07:24;;;;;;;10.75;4.32;;;4.10;99.90;;;;;;4938520;29;20102;-86
2024/03/26 02:09:51;;;;;;;13.48;4.93;;;4.30;99.90;;;;;;4972815;29;20039;-86
2024/03/26 02:12:18;;;;;;;12.80;4.57;;;4.40;99.90;;;;;;4952986;29;20040;-86
2024/03/26 02:14:45;;;;;;;9.98;4.00;;;3.40;99.90;;;;;;4958618;28;20062;-85
2024/03/26 02:17:11;;;;;;;9.68;4.13;;;3.40;99.90;;;;;;4958754;29;20045;-86
2024/03/26 02:19:38;;;;;;;9.07;4.00;;;3.40;99.90;;;;;;4961422;28;20117;-86
2024/03/26 02:22:04;;;;;;;15.38;4.38;;;4.00;99.90;;;;;;4974447;28;20034;-86
2024/03/26 02:24:32;;;;;;;10.70;3.85;;;3.40;99.90;;;;;;4963650;28;20126;-85
2024/03/26 02:26:59;;;;;;;12.88;4.00;;;3.40;99.90;;;;;;4959118;29;20413;-86
2024/03/26 02:29:26;;;;;;;10.32;4.38;;;3.40;99.90;;;;;;4956749;28;20046;-86
2024/03/26 02:31:52;;;;;;;8.85;4.00;;;3.40;99.90;;;;;;4965534;29;20052;-86
2024/03/26 02:34:20;;;;;;;8.18;3.60;;;3.30;99.90;;;;;;4960452;29;20039;-86
2024/03/26 02:36:47;;;;;;;7.45;3.70;;;3.30;99.90;;;;;;4966278;28;20042;-86
2024/03/26 02:39:14;;;;;;;7.10;3.50;;;3.30;99.90;;;;;;4960766;28;20035;-86
2024/03/26 02:41:41;;;;;;;9.65;3.88;;;4.50;99.90;;;;;;4972136;28;20415;-86
2024/03/26 02:44:08;;;;;;;12.85;4.10;;;3.30;99.90;;;;;;4973037;29;20043;-86
2024/03/26 02:46:34;;;;;;;10.02;3.78;;;3.30;99.90;;;;;;4956697;29;20039;-86
2024/03/26 02:49:01;;;;;;;14.52;4.38;;;3.30;99.90;;;;;;4956782;29;20039;-86
2024/03/26 02:51:28;;;;;;;8.80;3.70;;;3.80;99.90;;;;;;4959722;29;20523;-86
2024/03/26 02:53:54;;;;;;;8.32;3.60;;;3.70;99.90;;;;;;4944262;29;20031;-85
2024/03/26 02:56:21;;;;;;;12.15;3.70;;;3.20;99.90;;;;;;4950811;28;20043;-85
2024/03/26 02:58:48;;;;;;;14.60;3.55;;;3.20;99.90;;;;;;4956364;29;20114;-85
2024/03/26 03:01:15;;;;;;;7.65;4.03;;;3.30;99.90;;;;;;4966189;28;20039;-86
2024/03/26 03:03:41;;;;;;;9.98;3.83;;;3.90;99.90;;;;;;4961285;28;20118;-86
2024/03/26 03:06:08;;;;;;;12.63;4.10;;;3.20;99.90;;;;;;4963764;29;20142;-86
2024/03/26 03:08:36;;;;;;;7.95;3.38;;;3.20;99.90;;;;;;4959664;28;20046;-86
2024/03/26 03:11:03;;;;;;;10.48;4.07;;;3.20;99.90;;;;;;4963689;29;20467;-86
2024/03/26 03:13:31;;;;;;;9.68;3.25;;;4.10;99.90;;;;;;4956435;29;20348;-86
2024/03/26 03:15:57;;;;;;;10.18;3.75;;;3.20;99.90;;;;;;4948881;29;20039;-86
2024/03/26 03:18:28;;;;;;;7.07;3.42;;;3.20;99.90;;;;;;4962701;28;20378;-85
2024/03/26 03:20:55;;;;;;;12.90;3.60;;;3.30;99.90;;;;;;4957988;29;20095;-86
2024/03/26 03:23:22;;;;;;;8.73;3.58;;;3.30;99.90;;;;;;4971932;29;20043;-86
2024/03/26 03:25:56;;;;;;;8.52;3.70;;;3.30;99.90;;;;;;4961885;29;20101;-86
2024/03/26 03:28:23;;;;;;;8.73;3.28;;;3.50;99.90;;;;;;4937255;29;20402;-86
2024/03/26 03:30:50;;;;;;;9.27;3.40;;;3.30;99.90;;;;;;4952062;29;20456;-85
2024/03/26 03:33:17;;;;;;;10.35;4.10;;;3.30;99.90;;;;;;4961345;28;20053;-86
2024/03/26 03:35:44;;;;;;;9.10;3.30;;;4.60;99.90;;;;;;4958423;29;20039;-86
2024/03/26 03:38:11;;;;;;;8.75;3.80;;;3.30;99.90;;;;;;4962795;28;20047;-86
2024/03/26 03:40:37;;;;;;;9.57;3.75;;;3.30;99.90;;;;;;4959059;29;20515;-86
2024/03/26 03:43:04;;;;;;;16.25;3.80;;;4.10;99.90;;;;;;4952670;29;20039;-86
2024/03/26 03:45:31;;;;;;;12.50;3.47;;;4.40;99.90;;;;;;4966129;29;20177;-85
2024/03/26 03:47:57;;;;;;;10.20;3.58;;;4.60;99.90;;;;;;4963103;29;20043;-86
2024/03/26 03:50:24;;;;;;;9.43;3.30;;;4.20;99.90;;;;;;4959852;29;20452;-86
2024/03/26 03:52:50;;;;;;;8.65;3.30;;;4.20;99.90;;;;;;4961321;28;20086;-86
2024/03/26 03:55:17;;;;;;;11.73;5.40;;;3.80;99.90;;;;;;4960830;29;20571;-86
2024/03/26 03:57:44;;;;;;;7.07;3.35;;;3.60;99.90;;;;;;4959872;29;20070;-86
2024/03/26 04:00:11;;;;;;;9.32;3.40;;;3.30;99.90;;;;;;4961469;29;20503;-86
2024/03/26 04:02:38;;;;;;;9.68;3.30;;;3.30;99.90;;;;;;4952492;29;20504;-85
2024/03/26 04:05:04;;;;;;;9.52;3.33;;;3.30;99.90;;;;;;4974900;29;20162;-85
2024/03/26 04:07:31;;;;;;;9.25;3.17;;;3.30;99.90;;;;;;4979679;28;20038;-86
2024/03/26 04:09:58;;;;;;;8.38;3.40;;;3.30;99.90;;;;;;4969221;28;20039;-86
2024/03/26 04:12:25;;;;;;;10.25;3.80;;;3.30;99.90;;;;;;4990385;28;20030;-86
2024/03/26 04:14:51;;;;;;;8.27;3.42;;;3.30;99.90;;;;;;4962222;29;20119;-86
2024/03/26 04:17:18;;;;;;;7.10;3.17;;;3.30;99.90;;;;;;4949703;29;20501;-86
2024/03/26 04:19:45;;;;;;;12.07;3.78;;;4.10;99.90;;;;;;4961818;29;20414;-86
2024/03/26 04:22:11;;;;;;;13.00;3.22;;;3.30;99.90;;;;;;4979430;28;20069;-86
2024/03/26 04:24:38;;;;;;;8.38;2.90;;;3.30;99.90;;;;;;4962556;29;20085;-86
2024/03/26 04:27:04;;;;;;;9.05;3.13;;;3.40;99.90;;;;;;4955896;29;20564;-86
2024/03/26 04:29:31;;;;;;;7.75;2.97;;;3.30;99.90;;;;;;4957217;29;20434;-86
2024/03/26 04:31:58;;;;;;;8.80;3.35;;;3.40;99.90;;;;;;4967755;28;20050;-86
2024/03/26 04:34:24;;;;;;;10.93;3.47;;;3.30;99.90;;;;;;4960295;29;20077;-86
2024/03/26 04:36:51;;;;;;;11.15;2.90;;;3.30;99.90;;;;;;4957921;28;20046;-86
2024/03/26 04:39:18;;;;;;;9.80;3.08;;;3.30;99.90;;;;;;4958991;29;20530;-86
2024/03/26 04:41:44;;;;;;;13.65;3.13;;;4.30;99.90;;;;;;4958923;29;20046;-85
2024/03/26 04:44:11;;;;;;;5.78;3.10;;;4.00;99.90;;;;;;4950169;29;20074;-86
2024/03/26 04:46:38;;;;;;;9.13;3.10;;;3.50;99.90;;;;;;4958969;29;20468;-86
2024/03/26 04:49:04;;;;;;;7.28;3.08;;;3.30;99.90;;;;;;4962778;29;20123;-86
2024/03/26 04:51:31;;;;;;;7.63;2.67;;;3.30;99.90;;;;;;4974211;29;20066;-85
2024/03/26 04:53:58;;;;;;;10.63;3.50;;;3.30;99.90;;;;;;4966396;29;20046;-85
2024/03/26 04:56:27;;;;;;;8.57;2.90;;;4.30;99.90;;;;;;4957460;29;20118;-86
2024/03/26 04:58:53;;;;;;;9.90;3.47;;;3.30;99.90;;;;;;4942934;28;20032;-86
2024/03/26 05:01:20;;;;;;;8.13;3.55;;;3.50;99.90;;;;;;4963638;29;20135;-86
2024/03/26 05:03:47;;;;;;;10.60;3.28;;;3.30;99.90;;;;;;4949225;29;20075;-86
2024/03/26 05:06:14;;;;;;;10.10;3.25;;;3.70;99.90;;;;;;4942403;29;20107;-85
2024/03/26 05:08:41;;;;;;;7.90;3.33;;;3.30;99.90;;;;;;4957182;29;20052;-86
2024/03/26 05:11:07;;;;;;;10.48;3.05;;;4.20;99.90;;;;;;4961337;29;20047;-86
2024/03/26 05:13:34;;;;;;;9.63;3.10;;;3.30;99.90;;;;;;4958117;29;20097;-86
2024/03/26 05:16:01;;;;;;;9.05;2.85;;;4.40;99.90;;;;;;4964448;28;20039;-86
2024/03/26 05:18:27;;;;;;;12.35;3.30;;;3.30;99.90;;;;;;4957852;29;20035;-86
2024/03/26 05:20:54;;;;;;;7.90;3.05;;;3.60;99.90;;;;;;4958935;29;20079;-86
2024/03/26 05:23:21;;;;;;;8.77;3.03;;;3.30;99.90;;;;;;4962435;29;20047;-86
2024/03/26 05:25:48;;;;;;;8.95;2.88;;;3.20;99.90;;;;;;4961093;28;20039;-86
2024/03/26 05:28:15;;;;;;;9.73;3.00;;;3.40;99.90;;;;;;4962143;29;20039;-86
2024/03/26 05:30:41;;;;;;;6.82;3.15;;;4.10;99.90;;;;;;4958093;29;20047;-86
2024/03/26 05:33:08;;;;;;;8.02;2.78;;;4.40;99.90;;;;;;4957928;29;20480;-85
2024/03/26 05:35:34;;;;;;;8.57;3.00;;;3.30;99.90;;;;;;4964020;28;20122;-86
2024/03/26 05:38:01;;;;;;;11.05;2.90;;;3.10;99.90;;;;;;4966656;28;20824;-86
2024/03/26 05:40:28;;;;;;;8.23;3.38;;;3.20;99.90;;;;;;4967663;28;20121;-86
2024/03/26 05:42:55;;;;;;;9.00;3.10;;;3.50;99.90;;;;;;4965481;28;20063;-86
2024/03/26 05:45:23;;;;;;;6.85;3.25;;;3.30;99.90;;;;;;4972956;28;20070;-86
2024/03/26 05:47:50;;;;;;;8.13;2.70;;;3.30;99.90;;;;;;4961594;29;20556;-85
2024/03/26 05:50:16;;;;;;;11.60;2.92;;;3.30;99.90;;;;;;4958081;28;20122;-86
2024/03/26 05:52:43;;;;;;;9.18;2.85;;;3.40;99.90;;;;;;4983023;29;20035;-85
2024/03/26 05:55:09;;;;;;;6.93;2.70;;;4.40;99.90;;;;;;4955524;29;20091;-86
2024/03/26 05:57:36;;;;;;;9.23;3.05;;;3.40;99.90;;;;;;4957634;29;20054;-86
2024/03/26 06:00:03;;;;;;;9.30;2.90;;;4.50;99.90;;;;;;4945257;29;20044;-86
2024/03/26 06:02:29;;;;;;;6.30;2.88;;;3.50;99.90;;;;;;4945873;29;20543;-86
2024/03/26 06:04:56;;;;;;;7.28;2.90;;;3.50;99.90;;;;;;4953740;29;20146;-85
2024/03/26 06:07:23;;;;;;;6.38;2.63;;;3.80;99.90;;;;;;4957501;29;20532;-85
2024/03/26 06:09:49;;;;;;;8.38;3.10;;;4.00;99.90;;;;;;4961201;29;20054;-85
2024/03/26 06:12:19;;;;;;;7.18;2.75;;;3.60;99.90;;;;;;4958002;28;20074;-85
2024/03/26 06:14:46;;;;;;;7.03;2.80;;;3.60;99.90;;;;;;4962259;29;20078;-85
2024/03/26 06:17:13;;;;;;;7.80;2.72;;;3.70;99.90;;;;;;4947433;29;20042;-85
2024/03/26 06:19:39;;;;;;;7.82;2.85;;;3.80;99.90;;;;;;4968448;28;20071;-85
2024/03/26 06:22:06;;;;;;;6.70;2.40;;;3.80;99.90;;;;;;4957243;29;20083;-85
2024/03/26 06:24:32;;;;;;;7.78;2.78;;;5.00;99.90;;;;;;4954721;29;20118;-85
2024/03/26 06:26:59;;;;;;;6.95;3.20;;;4.90;99.90;;;;;;4960676;29;20042;-86
2024/03/26 06:29:26;;;;;;;8.13;2.67;;;3.90;99.90;;;;;;4980519;29;20389;-86
2024/03/26 06:31:52;;;;;;;6.70;2.20;;;4.60;99.90;;;;;;4956679;29;20120;-85
2024/03/26 06:34:19;;;;;;;6.75;3.05;;;4.90;99.90;;;;;;4972354;28;20545;-86
2024/03/26 06:36:45;;;;;;;7.45;2.80;;;4.60;99.90;;;;;;4972501;28;20039;-86
2024/03/26 06:39:17;;;;;;;6.97;2.92;;;4.10;99.90;;;;;;4954766;29;20096;-86
2024/03/26 06:41:44;;;;;;;8.98;2.72;;;4.10;99.90;;;;;;4963386;29;20047;-86
2024/03/26 06:44:11;;;;;;;8.02;2.88;;;4.90;99.90;;;;;;4956724;29;20508;-85
2024/03/26 06:46:39;;;;;;;7.63;2.88;;;4.20;99.90;;;;;;4984555;28;20074;-85
2024/03/26 06:49:05;;;;;;;8.95;3.08;;;4.20;99.90;;;;;;4953120;29;20044;-85
2024/03/26 06:51:32;;;;;;;9.27;3.00;;;4.30;99.90;;;;;;4952199;28;20050;-85
2024/03/26 06:53:59;;;;;;;7.63;3.15;;;4.30;99.90;;;;;;4951748;28;20040;-85
2024/03/26 06:56:25;;;;;;;6.43;2.78;;;5.20;99.90;;;;;;4964149;28;20042;-85
2024/03/26 06:58:52;;;;;;;10.27;3.28;;;5.60;99.90;;;;;;4956470;29;20042;-85
2024/03/26 07:01:18;;;;;;;6.75;2.88;;;4.50;99.90;;;;;;4960305;29;20098;-86
2024/03/26 07:03:45;;;;;;;4.88;2.55;;;4.60;99.90;;;;;;4956309;29;20042;-86
2024/03/26 07:06:12;;;;;;;6.80;2.63;;;5.70;99.90;;;;;;4971734;29;20063;-85
2024/03/26 07:08:38;;;;;;;8.27;2.95;;;6.00;99.90;;;;;;4962413;29;20035;-85
2024/03/26 07:11:05;;;;;;;8.90;2.65;;;5.30;99.90;;;;;;4962189;28;20047;-85
2024/03/26 07:13:33;;;;;;;8.85;2.83;;;4.90;99.90;;;;;;4956733;29;20043;-85
2024/03/26 07:15:59;;;;;;;6.88;2.40;;;5.70;99.90;;;;;;4970508;28;20061;-84
2024/03/26 07:18:26;;;;;;;6.38;2.80;;;5.20;99.90;;;;;;4964180;29;20122;-85
2024/03/26 07:20:52;;;;;;;6.53;2.55;;;5.00;99.90;;;;;;4973424;29;20138;-85
2024/03/26 07:23:19;;;;;;;7.63;2.75;;;6.50;99.90;;;;;;4959661;29;20039;-85
2024/03/26 07:25:46;;;;;;;7.80;2.97;;;6.10;99.90;;;;;;4955728;29;20130;-85
2024/03/26 07:28:13;;;;;;;7.70;2.80;;;5.30;99.90;;;;;;4965196;29;20044;-85
2024/03/26 07:30:39;;;;;;;7.60;2.58;;;5.90;99.90;;;;;;4951640;29;20046;-85
2024/03/26 07:33:06;;;;;;;6.93;3.05;;;5.40;99.90;;;;;;4952904;28;20035;-85
2024/03/26 07:35:33;;;;;;;7.43;2.70;;;4.60;99.90;;;;;;4950429;28;20119;-85
2024/03/26 07:38:00;;;;;;;8.57;2.95;;;5.50;99.90;;;;;;4952340;29;20759;-85
2024/03/26 07:40:29;;;;;;;8.02;2.88;;;6.70;99.90;;;;;;4943356;29;20102;-86
2024/03/26 07:42:56;;;;;;;6.75;2.95;;;5.70;99.90;;;;;;4944009;28;20083;-86
2024/03/26 07:45:25;;;;;;;5.93;2.67;;;5.70;99.90;;;;;;4955746;28;20067;-86
2024/03/26 07:47:51;;;;;;;7.20;2.80;;;5.70;99.90;;;;;;4956395;29;20126;-86
2024/03/26 07:50:18;;;;;;;7.85;2.58;;;6.10;99.90;;;;;;4955476;29;20187;-86
2024/03/26 07:52:45;;;;;;;7.10;2.70;;;5.90;99.90;;;;;;4951449;29;20040;-85
2024/03/26 07:55:11;;;;;;;11.65;2.90;;;6.00;99.90;;;;;;4950980;29;20119;-85
2024/03/26 07:57:39;;;;;;;7.20;2.90;;;6.20;99.90;;;;;;4965094;28;20484;-85
2024/03/26 08:00:10;;;;;;;9.20;2.95;;;6.30;99.90;;;;;;4955860;28;20043;-86
2024/03/26 08:02:41;;;;;;;8.25;2.58;;;6.40;99.90;;;;;;4974866;29;20524;-85
2024/03/26 08:05:08;;;;;;;9.80;2.80;;;6.60;99.90;;;;;;4952139;29;20063;-85
2024/03/26 08:07:34;;;;;;;5.72;2.60;;;6.70;99.90;;;;;;4946470;29;20059;-85
2024/03/26 08:10:01;;;;;;;7.13;2.53;;;6.90;99.90;;;;;;4946821;29;20093;-88
2024/03/26 08:12:27;;;;;;;7.00;2.70;;;7.80;99.90;;;;;;4971632;28;20078;-85
2024/03/26 08:14:54;;;;;;;6.88;2.72;;;7.00;99.90;;;;;;4973265;29;20062;-85
2024/03/26 08:17:21;;;;;;;9.32;2.90;;;7.20;99.90;;;;;;4954339;29;20045;-85
2024/03/26 08:19:47;;;;;;;10.38;2.97;;;7.30;99.90;;;;;;4947905;28;20381;-86
2024/03/26 08:22:14;;;;;;;6.72;3.28;;;8.00;99.90;;;;;;4948007;29;20035;-85
2024/03/26 08:24:41;;;;;;;12.80;2.75;;;7.50;99.90;;;;;;4952316;29;20043;-86
2024/03/26 08:27:07;;;;;;;9.35;3.10;;;7.60;99.90;;;;;;4949925;29;20102;-85
2024/03/26 08:29:34;;;;;;;8.00;2.50;;;7.70;99.90;;;;;;4951065;29;20046;-85
2024/03/26 08:32:01;;;;;;;7.63;3.00;;;7.80;99.90;;;;;;4953500;28;20040;-85
2024/03/26 08:34:27;;;;;;;8.23;2.55;;;7.80;99.90;;;;;;4944377;29;20485;-86
2024/03/26 08:36:54;;;;;;;8.95;2.65;;;8.00;99.90;;;;;;4946283;29;20126;-85
2024/03/26 08:39:20;;;;;;;6.75;2.83;;;8.10;99.90;;;;;;4962434;29;20083;-85
2024/03/26 08:41:47;;;;;;;6.65;2.60;;;8.30;99.90;;;;;;4951657;29;20047;-85
2024/03/26 08:44:14;;;;;;;5.88;2.55;;;8.60;99.90;;;;;;4956719;29;20035;-85
2024/03/26 08:46:40;;;;;;;5.53;2.58;;;8.60;99.90;;;;;;4957299;29;20188;-85
2024/03/26 08:49:07;;;;;;;9.60;3.30;;;8.60;99.90;;;;;;4952200;28;20043;-84
2024/03/26 08:51:34;;;;;;;6.90;2.42;;;9.00;99.90;;;;;;4951806;29;20047;-85
2024/03/26 08:54:00;;;;;;;6.03;2.45;;;8.80;99.90;;;;;;4971791;29;20043;-85
2024/03/26 08:56:27;;;;;;;5.57;2.40;;;8.90;99.90;;;;;;4955123;28;20044;-85
2024/03/26 08:58:54;;;;;;;5.75;2.50;;;9.00;99.90;;;;;;4955791;29;20085;-86
2024/03/26 09:01:20;;;;;;;6.45;2.63;;;10.00;99.90;;;;;;4960894;28;20050;-87
2024/03/26 09:03:47;;;;;;;5.40;2.38;;;9.00;99.90;;;;;;4991285;28;20074;-86
2024/03/26 09:06:14;;;;;;;6.38;2.58;;;9.20;99.90;;;;;;4972049;28;20185;-87
2024/03/26 09:08:41;;;;;;;6.10;2.63;;;9.20;99.90;;;;;;4962604;29;20075;-85
2024/03/26 09:11:08;;;;;;;5.97;2.63;;;9.30;99.90;;;;;;4967204;29;20047;-85
2024/03/26 09:13:39;;;;;;;7.00;2.78;;;9.60;99.90;;;;;;4958017;29;20127;-86
2024/03/26 09:16:10;;;;;;;5.30;2.60;;;9.80;99.90;;;;;;4957909;29;20086;-86
2024/03/26 09:18:37;;;;;;;6.20;2.63;;;9.70;99.90;;;;;;4955829;29;20051;-86
2024/03/26 09:21:04;;;;;;;5.32;2.47;;;9.70;99.90;;;;;;4967384;28;20046;-85
2024/03/26 09:23:33;;;;;;;6.75;2.97;;;9.80;99.90;;;;;;4961636;29;20046;-87
2024/03/26 09:26:00;;;;;;;6.25;2.70;;;9.80;99.90;;;;;;4958307;29;20054;-87
2024/03/26 09:28:28;;;;;;;6.03;2.47;;;9.90;99.90;;;;;;4959031;29;20047;-87
2024/03/26 09:30:55;;;;;;;5.15;2.35;;;10.60;99.90;;;;;;4966866;28;20047;-86
2024/03/26 09:33:21;;;;;;;4.93;2.60;;;10.20;99.90;;;;;;4963314;29;20051;-86
2024/03/26 09:35:48;;;;;;;5.57;2.88;;;10.20;99.90;;;;;;4958181;28;20030;-87
2024/03/26 09:38:15;;;;;;;6.47;2.80;;;10.60;99.90;;;;;;4956012;29;20098;-86
2024/03/26 09:40:47;;;;;;;5.75;2.58;;;10.40;99.90;;;;;;4947905;29;20043;-85
2024/03/26 09:43:14;;;;;;;4.70;2.20;;;10.50;99.90;;;;;;4946316;28;20402;-85
2024/03/26 09:45:42;;;;;;;6.18;2.50;;;10.50;99.90;;;;;;4958063;28;20036;-86
2024/03/26 09:48:09;;;;;;;4.90;2.50;;;10.50;99.90;;;;;;4955996;29;20043;-86
2024/03/26 09:50:38;;;;;;;6.03;2.40;;;10.50;99.90;;;;;;4962980;29;20043;-85
2024/03/26 09:53:09;;;;;;;4.03;2.17;;;10.50;99.90;;;;;;4943955;29;20040;-85
2024/03/26 09:55:37;;;;;;;7.35;2.50;;;10.50;99.90;;;;;;4950271;29;20114;-85
2024/03/26 09:58:03;;;;;;;6.05;2.53;;;10.70;99.90;;;;;;4947773;29;20035;-86
2024/03/26 10:00:31;;;;;;;7.97;3.00;;;10.70;99.90;;;;;;4968317;29;20062;-86
2024/03/26 10:02:59;;;;;;;6.13;2.35;;;10.80;99.90;;;;;;4940451;29;20051;-87
2024/03/26 10:05:28;;;;;;;7.38;2.22;;;11.30;99.90;;;;;;4954353;29;20106;-86
2024/03/26 10:07:56;;;;;;;11.70;2.53;;;11.10;99.90;;;;;;4955907;29;20050;-87
2024/03/26 10:10:23;;;;;;;5.78;2.30;;;11.10;99.90;;;;;;4956657;29;20412;-86
2024/03/26 10:12:50;;;;;;;6.38;2.35;;;11.10;99.90;;;;;;4962024;29;20039;-87
2024/03/26 10:15:18;;;;;;;6.18;2.30;;;11.30;99.90;;;;;;4952657;29;21370;-87
2024/03/26 10:17:45;;;;;;;5.30;2.30;;;11.40;99.90;;;;;;4957581;29;20456;-87
2024/03/26 10:20:12;;;;;;;6.05;2.33;;;11.50;99.90;;;;;;4963231;28;20103;-87
2024/03/26 10:22:39;;;;;;;5.40;2.60;;;11.60;99.90;;;;;;4983849;28;20061;-87
2024/03/26 10:25:06;;;;;;;4.30;2.22;;;11.60;99.90;;;;;;4964776;29;20075;-86
2024/03/26 10:27:32;;;;;;;7.20;2.30;;;11.70;99.90;;;;;;4946153;29;20079;-86
2024/03/26 10:29:59;;;;;;;8.02;2.45;;;11.70;99.90;;;;;;4969453;29;20031;-86
2024/03/26 10:32:26;;;;;;;5.97;2.40;;;11.40;99.90;;;;;;4956655;29;20486;-86
2024/03/26 10:34:56;;;;;;;4.30;2.13;;;11.80;99.90;;;;;;4958979;29;20042;-87
2024/03/26 10:37:24;;;;;;;5.10;2.25;;;11.80;99.90;;;;;;4978195;29;20036;-86
2024/03/26 10:39:59;;;;;;;7.15;2.40;;;11.70;99.90;;;;;;4963438;28;20401;-86
2024/03/26 10:42:26;;;;;;;4.45;2.30;;;11.80;99.90;;;;;;4957518;29;20094;-86
2024/03/26 10:44:57;;;;;;;5.53;2.55;;;11.90;99.90;;;;;;4956637;29;20493;-86
2024/03/26 10:47:25;;;;;;;5.20;2.22;;;11.70;99.90;;;;;;4959661;29;20481;-86
2024/03/26 10:49:52;;;;;;;8.82;2.25;;;11.80;99.90;;;;;;4955853;29;20039;-86
2024/03/26 10:52:23;;;;;;;4.75;2.33;;;12.20;99.90;;;;;;4954276;29;20525;-87
2024/03/26 10:54:52;;;;;;;5.88;2.38;;;12.10;99.90;;;;;;4937756;29;20580;-86
2024/03/26 10:57:19;;;;;;;6.07;2.70;;;13.00;99.90;;;;;;4956739;29;20042;-86
2024/03/26 10:59:46;;;;;;;5.82;2.40;;;12.20;99.90;;;;;;4950343;29;20031;-86
2024/03/26 11:02:13;;;;;;;5.22;2.28;;;12.20;99.90;;;;;;4960377;29;20039;-86
2024/03/26 11:04:40;;;;;;;6.32;2.50;;;12.00;99.90;;;;;;4971322;29;20493;-86
2024/03/26 11:07:09;;;;;;;7.80;2.45;;;12.00;99.90;;;;;;4952597;29;20110;-86
2024/03/26 11:09:38;;;;;;;8.55;2.53;;;11.90;99.90;;;;;;4928784;29;20083;-86
2024/03/26 11:12:10;;;;;;;5.43;2.47;;;12.00;99.90;;;;;;4957331;28;20036;-86
2024/03/26 11:14:41;;;;;;;5.88;2.20;;;12.10;99.90;;;;;;4954020;28;20563;-86
2024/03/26 11:17:12;;;;;;;4.85;2.17;;;12.30;99.90;;;;;;4949123;29;20043;-86
2024/03/26 11:19:42;;;;;;;4.97;2.50;;;12.00;99.90;;;;;;4943991;29;20039;-86
2024/03/26 11:22:11;;;;;;;6.68;2.90;;;12.10;99.90;;;;;;4956212;29;20122;-86
2024/03/26 11:24:40;;;;;;;5.25;2.42;;;12.10;99.90;;;;;;4956697;29;20155;-86
2024/03/26 11:27:07;;;;;;;5.55;2.45;;;12.10;99.90;;;;;;4955140;29;20039;-86
2024/03/26 11:29:35;;;;;;;4.90;2.40;;;12.10;99.90;;;;;;4946269;28;20464;-86
2024/03/26 11:32:02;;;;;;;4.57;2.45;;;12.00;99.90;;;;;;4956173;29;20097;-86
2024/03/26 11:34:30;;;;;;;6.47;2.30;;;12.00;99.90;;;;;;4953267;28;20043;-86
2024/03/26 11:36:57;;;;;;;6.00;2.60;;;12.00;99.90;;;;;;4961380;28;20109;-86
2024/03/26 11:39:25;;;;;;;6.97;2.47;;;12.30;99.90;;;;;;4961026;29;20043;-86
2024/03/26 11:41:53;;;;;;;6.70;2.40;;;12.00;99.90;;;;;;4946679;29;20847;-87
2024/03/26 11:44:23;;;;;;;9.50;2.70;;;12.00;99.90;;;;;;4926735;29;20043;-93
2024/03/26 11:46:50;;;;;;;5.78;2.47;;;12.70;99.90;;;;;;4956565;29;20413;-89
2024/03/26 11:49:16;;;;;;;4.35;2.47;;;12.00;99.90;;;;;;4947459;29;20047;-89
2024/03/26 11:51:45;;;;;;;7.45;2.53;;;12.00;99.90;;;;;;4953561;28;20603;-87
2024/03/26 11:54:11;;;;;;;5.43;2.60;;;12.00;99.90;;;;;;4940931;29;20039;-87
2024/03/26 11:56:38;;;;;;;6.10;2.58;;;12.10;99.90;;;;;;4964481;28;20046;-87
2024/03/26 11:59:05;;;;;;;6.70;2.40;;;12.10;99.90;;;;;;4943855;29;20043;-87
2024/03/26 12:01:32;;;;;;;5.90;2.70;;;12.10;99.90;;;;;;4955874;29;20377;-87
2024/03/26 12:04:01;;;;;;;4.38;2.60;;;12.20;99.90;;;;;;4963879;28;20044;-87
2024/03/26 12:06:30;;;;;;;6.88;2.60;;;12.30;99.90;;;;;;4965952;28;20059;-87
2024/03/26 12:08:58;;;;;;;6.30;2.85;;;12.40;99.90;;;;;;4963528;29;20050;-87
2024/03/26 12:11:25;;;;;;;4.40;2.47;;;12.40;99.90;;;;;;4960881;29;20043;-86
2024/03/26 12:13:52;;;;;;;6.28;2.30;;;12.50;99.90;;;;;;4970218;29;20031;-87
2024/03/26 12:16:27;;;;;;;6.07;2.53;;;12.50;99.90;;;;;;4959859;29;20035;-87
2024/03/26 12:18:57;;;;;;;4.85;2.42;;;12.40;99.90;;;;;;4979459;28;20057;-87
2024/03/26 12:21:24;;;;;;;7.47;2.60;;;12.30;99.90;;;;;;4979045;28;20496;-87
2024/03/26 12:23:52;;;;;;;5.63;2.55;;;12.30;99.90;;;;;;4953224;29;20430;-87
2024/03/26 12:26:21;;;;;;;6.07;2.42;;;12.20;99.90;;;;;;4949381;29;20044;-87
2024/03/26 12:28:50;;;;;;;7.15;2.95;;;12.20;99.90;;;;;;4953344;29;20048;-87
2024/03/26 12:31:17;;;;;;;4.88;2.42;;;12.10;99.90;;;;;;4952284;29;20419;-87
2024/03/26 12:33:44;;;;;;;6.05;3.13;;;12.60;99.90;;;;;;4962017;28;20047;-87
2024/03/26 12:36:11;;;;;;;8.98;2.70;;;12.20;99.90;;;;;;4950360;29;20113;-86
2024/03/26 12:38:39;;;;;;;7.30;2.58;;;12.00;99.90;;;;;;4942890;29;20508;-87
2024/03/26 12:41:07;;;;;;;7.57;2.42;;;12.00;99.90;;;;;;4954408;29;20043;-87
2024/03/26 12:43:33;;;;;;;6.55;2.55;;;12.00;99.90;;;;;;4954357;29;20077;-87
2024/03/26 12:46:00;;;;;;;5.13;2.58;;;11.90;99.90;;;;;;4957000;28;20518;-87
2024/03/26 12:48:28;;;;;;;5.22;2.50;;;11.80;99.90;;;;;;4951587;29;20051;-88
2024/03/26 12:50:55;;;;;;;5.40;2.50;;;12.30;99.90;;;;;;4983993;28;20050;-88
2024/03/26 12:53:24;;;;;;;4.95;2.40;;;11.70;99.90;;;;;;4959338;29;20032;-87